LGKR Airport Information

Runway Information
Runway 17 Length 7792 ft width 148 ft
Elevation 5 ft Threshold 1348 ft Heading 169
Runway 35 Length 7792 ft Width 148 ft
Elevation 5 ft Threshold 213 ft Heading 349
Airport Frequencies
Type A/G Name KERKIRA RD Frequency 563.7 MHZ
Type APP Name KERKIRA AP Frequency 118.075 MHZ
Type ATIS Name ATIS Frequency 126.35 MHZ
Type TWR Name KERKIRA TW Frequency 120.85 MHZ
Airport Navaids
Type VOR-DME Name Garitsa Frequency 108800 KHZ
Type NDB Name Kerkira Frequency 403 KHZ
Type VOR-DME Name Kerkira Frequency 114700 KHZ
Airport Weather Information & NOTAM
ADDS - METARS form results

(1827 UTC 17 October 2018)
Data provider http://aviationweather.gov/metar/data/
 
METAR text: LGKR 171820Z 00000KT CAVOK 20/15 Q1015 NOSIG
Conditions at: LGKR (IOANNIS KAPODIST, GR) observed 1820 UTC 17 October 2018
Temperature: 20.0°C (68°F)
Dewpoint: 15.0°C (59°F) [RH = 73%]
Pressure (altimeter): 29.97 inches Hg (1015.0 mb)
Winds: calm
Visibility: 6 or more miles (10+ km)
Ceiling: ceiling and visibility are OK
Clouds: unknown
Weather: no significant weather observed at this time

METAR text: LGKR 171750Z 00000KT CAVOK 20/15 Q1015 NOSIG
Conditions at: LGKR (IOANNIS KAPODIST, GR) observed 1750 UTC 17 October 2018
Temperature: 20.0°C (68°F)
Dewpoint: 15.0°C (59°F) [RH = 73%]
Pressure (altimeter): 29.97 inches Hg (1015.0 mb)
Winds: calm
Visibility: 6 or more miles (10+ km)
Ceiling: ceiling and visibility are OK
Clouds: unknown
Weather: no significant weather observed at this time

Forecast for: LGKR (IOANNIS KAPODIST, GR)
Text: TAF LGKR 171700Z 1718/1818 VRB05KT 9999 FEW020
Forecast period: 1800 UTC 17 October 2018 to 1800 UTC 18 October 2018
Forecast type: FROM: standard forecast or significant change
Winds: variable direction winds at 6 MPH (5 knots; 2.6 m/s)
Visibility: 6 or more miles 10+ km)
Ceiling: at least 12,000 feet AGL
Clouds: few clouds at 2000 feet AGL
Weather: no significant weather forecast for this period
Text: TEMPO 1812/1816 23010KT
Forecast period: 1200 to 1600 UTC 18 October 2018
Forecast type: TEMPORARY: The following changes expected for less than half the time period
Winds: from the SW (230 degrees) at 12 MPH (10 knots; 5.1 m/s)
Visibility: missing
Ceiling: unknown
Clouds: missing
Weather: no significant weather forecast for this period